Aviation Digital Data Service (ADDS)

Output produced by METARs form (0229 UTC 20 September 2020)
found at http://www.aviationweather.gov/metar/data/
 
Forecast for: RJCC (CHITOSE (JASDF/C, JP)
Text: TAF RJCC 192305Z 2000/2106 17010KT 9999 FEW020 SCT040
Forecast period: 0000 to 1500 UTC 20 September 2020
Forecast type: FROM: standard forecast or significant change
Winds: from the S (170 degrees) at 12 MPH (10 knots; 5.1 m/s)
Visibility: 6 or more miles (10+ km)
Ceiling: at least 12,000 feet AGL
Clouds: few clouds at 2000 feet AGL
scattered clouds at 4000 feet AGL
Weather: no significant weather forecast for this period
Text: BECMG 2015/2018 34006KT
Forecast period: 1500 UTC 20 September 2020 to 0600 UTC 21 September 2020
Forecast type: BECOMING: Conditions expected to become as follows by 1800 UTC 20 September 2020
Winds: from the NNW (340 degrees) at 7 MPH (6 knots; 3.1 m/s)
Visibility: 6 or more miles (10+ km)
Ceiling: at least 12,000 feet AGL
Clouds: few clouds at 2000 feet AGL
scattered clouds at 4000 feet AGL
Weather: no significant weather forecast for this period
Text: TEMPO 2018/2100 4000 SHRA BR FEW005 BKN008
Forecast period: 1800 UTC 20 September 2020 to 0000 UTC 21 September 2020
Forecast type: TEMPORARY: The following changes expected for less than half the time period
Visibility: 2.49 miles (4.01 km)
Ceiling: 800 feet AGL
Clouds: few clouds at 500 feet AGL
broken clouds at 800 feet AGL
Weather: SHRA BR  (rain showers, mist)